Time;durP1;ratioP1;P1;durP2;ratioP2;P2;SDS_P1;SDS_P2;PMS_P1;PMS_P2;Temp;Humidity;BMP_temperature;BMP_pressure;BME280_temperature;BME280_humidity;BME280_pressure;Samples;Min_cycle;Max_cycle;Signal;HPM_P1;HPM_P2
2023/06/22 00:00:58;;;;;;;19.83;15.05;;;17.80;99.90;;;;;;5133331;27;20113;-64
2023/06/22 00:03:24;;;;;;;18.58;14.68;;;17.80;99.90;;;;;;5121226;27;20069;-64
2023/06/22 00:05:51;;;;;;;19.25;15.98;;;17.80;99.90;;;;;;5114000;27;20039;-63
2023/06/22 00:08:17;;;;;;;21.20;16.15;;;17.70;99.90;;;;;;5118132;27;20040;-65
2023/06/22 00:10:44;;;;;;;24.08;17.45;;;17.70;99.90;;;;;;5129892;27;20043;-65
2023/06/22 00:13:10;;;;;;;21.65;16.75;;;17.70;99.90;;;;;;5120069;27;20379;-64
2023/06/22 00:15:38;;;;;;;20.13;16.50;;;17.70;99.90;;;;;;5115748;27;20065;-65
2023/06/22 00:18:05;;;;;;;21.50;16.67;;;17.70;99.90;;;;;;5118767;27;20046;-64
2023/06/22 00:20:32;;;;;;;20.75;17.98;;;17.60;99.90;;;;;;5133964;27;20049;-63
2023/06/22 00:22:59;;;;;;;21.42;17.50;;;17.60;99.90;;;;;;5123500;27;20464;-64
2023/06/22 00:25:25;;;;;;;22.50;19.08;;;17.60;99.90;;;;;;5125921;27;20390;-64
2023/06/22 00:27:51;;;;;;;19.38;17.15;;;17.60;99.90;;;;;;5112408;28;20047;-65
2023/06/22 00:30:17;;;;;;;19.60;16.30;;;17.60;99.90;;;;;;5127584;27;20034;-65
2023/06/22 00:32:44;;;;;;;21.88;17.02;;;17.60;99.90;;;;;;5121896;27;20095;-64
2023/06/22 00:35:10;;;;;;;19.63;15.15;;;17.50;99.90;;;;;;5118260;27;20529;-63
2023/06/22 00:37:41;;;;;;;17.15;15.07;;;17.40;99.90;;;;;;5118623;27;20039;-64
2023/06/22 00:40:10;;;;;;;19.63;16.07;;;17.30;99.90;;;;;;5129167;27;20482;-63
2023/06/22 00:42:36;;;;;;;16.55;14.55;;;17.30;99.90;;;;;;5133091;27;20055;-64
2023/06/22 00:45:02;;;;;;;18.73;15.00;;;17.20;99.90;;;;;;5132878;27;20605;-64
2023/06/22 00:47:28;;;;;;;16.77;15.00;;;17.20;99.90;;;;;;5120551;27;20042;-64
2023/06/22 00:49:54;;;;;;;18.80;16.25;;;17.10;99.90;;;;;;5115458;27;20067;-65
2023/06/22 00:52:26;;;;;;;19.98;15.02;;;17.10;99.90;;;;;;5111928;27;20114;-64
2023/06/22 00:54:52;;;;;;;20.33;15.70;;;17.00;99.90;;;;;;5103973;27;20028;-64
2023/06/22 00:57:18;;;;;;;17.77;15.88;;;17.00;99.90;;;;;;5109387;28;20092;-64
2023/06/22 00:59:45;;;;;;;18.95;16.35;;;17.00;99.90;;;;;;5111876;28;20109;-64
2023/06/22 01:02:11;;;;;;;18.25;16.15;;;16.90;99.90;;;;;;5111423;28;20047;-64
2023/06/22 01:04:39;;;;;;;18.05;15.90;;;16.90;99.90;;;;;;5108477;28;20047;-64
2023/06/22 01:07:19;;;;;;;22.73;16.23;;;16.80;99.90;;;;;;5108552;28;20075;-64
2023/06/22 01:10:08;;;;;;;19.55;17.05;;;16.80;99.90;;;;;;5108208;28;20035;-64
2023/06/22 01:12:43;;;;;;;20.00;15.68;;;16.80;99.90;;;;;;5111392;28;20401;-65
2023/06/22 01:15:15;;;;;;;17.30;15.10;;;16.70;99.90;;;;;;5111517;28;20119;-63
2023/06/22 01:17:42;;;;;;;16.17;14.57;;;16.70;99.90;;;;;;5111086;28;20532;-63
2023/06/22 01:20:11;;;;;;;17.17;15.45;;;16.60;99.90;;;;;;5110870;28;20092;-64
2023/06/22 01:23:06;;;;;;;17.08;14.68;;;16.60;99.90;;;;;;5110559;28;20096;-65
2023/06/22 01:25:47;;;;;;;16.50;14.80;;;16.50;99.90;;;;;;5070869;28;20608;-65
2023/06/22 01:28:41;;;;;;;16.10;14.45;;;16.50;99.90;;;;;;5072931;28;20523;-64
2023/06/22 01:31:10;;;;;;;16.60;14.85;;;16.40;99.90;;;;;;5069552;28;20040;-64
2023/06/22 01:33:39;;;;;;;18.75;16.75;;;16.40;99.90;;;;;;5089668;28;20111;-65
2023/06/22 01:36:06;;;;;;;17.98;16.08;;;16.40;99.90;;;;;;5068436;28;20051;-65
2023/06/22 01:38:33;;;;;;;18.95;16.40;;;16.40;99.90;;;;;;5072174;28;20052;-65
2023/06/22 01:41:00;;;;;;;16.70;14.90;;;16.30;99.90;;;;;;5088046;28;20036;-65
2023/06/22 01:43:27;;;;;;;15.10;13.52;;;16.30;99.90;;;;;;5088767;28;20056;-64
2023/06/22 01:45:58;;;;;;;15.32;13.73;;;16.30;99.90;;;;;;5071772;28;20044;-65
2023/06/22 01:48:25;;;;;;;17.83;15.57;;;16.30;99.90;;;;;;5055709;28;20028;-65
2023/06/22 01:50:53;;;;;;;16.23;13.93;;;16.30;99.90;;;;;;5071709;28;20079;-64
2023/06/22 01:53:23;;;;;;;17.88;15.50;;;16.30;99.90;;;;;;5071181;28;20040;-65
2023/06/22 01:55:49;;;;;;;19.20;16.83;;;16.30;99.90;;;;;;5068930;28;20800;-64
2023/06/22 01:58:15;;;;;;;18.25;16.35;;;16.30;99.90;;;;;;5072105;28;20083;-65
2023/06/22 02:00:48;;;;;;;21.10;18.27;;;16.30;99.90;;;;;;5071514;28;20041;-65
2023/06/22 02:03:19;;;;;;;20.15;18.05;;;16.30;99.90;;;;;;5096019;28;20455;-65
2023/06/22 02:05:54;;;;;;;20.70;18.48;;;16.30;99.90;;;;;;5092076;28;20047;-65
2023/06/22 02:08:28;;;;;;;20.90;18.70;;;16.30;99.90;;;;;;5099623;28;20121;-63
2023/06/22 02:10:55;;;;;;;22.95;20.13;;;16.30;99.90;;;;;;5107605;28;20372;-65
2023/06/22 02:13:24;;;;;;;21.85;19.52;;;16.30;99.90;;;;;;5101443;28;20126;-64
2023/06/22 02:15:50;;;;;;;22.60;20.20;;;16.30;99.90;;;;;;5093151;28;20044;-64
2023/06/22 02:18:15;;;;;;;22.38;19.95;;;16.30;99.90;;;;;;5097688;28;20486;-66
2023/06/22 02:20:41;;;;;;;23.17;20.20;;;16.30;99.90;;;;;;5091278;28;20039;-64
2023/06/22 02:23:07;;;;;;;20.58;18.10;;;16.30;99.90;;;;;;5100188;28;20044;-64
2023/06/22 02:25:33;;;;;;;23.20;20.02;;;16.30;99.90;;;;;;5075226;28;20052;-64
2023/06/22 02:28:00;;;;;;;22.90;18.65;;;16.30;99.90;;;;;;5097791;28;20040;-65
2023/06/22 02:30:25;;;;;;;19.38;16.58;;;16.20;99.90;;;;;;5103796;28;20146;-64
2023/06/22 02:32:58;;;;;;;20.10;17.98;;;16.20;99.90;;;;;;5097693;28;20176;-64
2023/06/22 02:35:31;;;;;;;21.98;18.42;;;16.20;99.90;;;;;;5089957;28;20071;-64
2023/06/22 02:38:00;;;;;;;22.35;18.52;;;16.10;99.90;;;;;;5101516;28;20047;-64
2023/06/22 02:40:26;;;;;;;20.40;18.23;;;16.10;99.90;;;;;;5099276;27;20100;-64
2023/06/22 02:42:52;;;;;;;20.75;18.45;;;16.10;99.90;;;;;;5107538;28;20092;-64
2023/06/22 02:45:17;;;;;;;19.92;17.23;;;16.00;99.90;;;;;;5108709;27;20114;-64
2023/06/22 02:47:43;;;;;;;19.15;16.92;;;16.00;99.90;;;;;;5094527;28;20127;-64
2023/06/22 02:50:09;;;;;;;18.30;16.48;;;15.90;99.90;;;;;;5106656;28;20612;-64
2023/06/22 02:52:35;;;;;;;20.15;18.10;;;15.90;99.90;;;;;;5091352;28;20499;-64
2023/06/22 02:55:01;;;;;;;26.13;20.60;;;15.90;99.90;;;;;;5096096;28;20040;-64
2023/06/22 02:57:26;;;;;;;21.75;18.63;;;15.90;99.90;;;;;;5125813;27;20058;-65
2023/06/22 02:59:52;;;;;;;21.77;18.80;;;15.80;99.90;;;;;;5119795;27;20049;-65
2023/06/22 03:02:20;;;;;;;19.08;17.15;;;15.80;99.90;;;;;;5136205;27;20066;-64
2023/06/22 03:04:48;;;;;;;18.60;16.70;;;15.80;99.90;;;;;;5117652;27;20218;-64
2023/06/22 03:07:15;;;;;;;20.38;18.00;;;15.70;99.90;;;;;;5126735;27;20030;-65
2023/06/22 03:09:43;;;;;;;20.48;18.27;;;15.70;99.90;;;;;;5132500;27;20048;-64
2023/06/22 03:12:08;;;;;;;20.30;18.17;;;15.70;99.90;;;;;;5133415;27;20529;-63
2023/06/22 03:14:34;;;;;;;19.90;17.83;;;15.70;99.90;;;;;;5115498;27;20078;-63
2023/06/22 03:17:02;;;;;;;21.95;19.75;;;15.70;99.90;;;;;;5124376;27;20043;-64
2023/06/22 03:19:31;;;;;;;20.98;18.67;;;15.60;99.90;;;;;;5128780;27;20039;-65
2023/06/22 03:21:57;;;;;;;19.52;17.52;;;15.60;99.90;;;;;;5112982;28;20082;-63
2023/06/22 03:24:23;;;;;;;19.80;17.65;;;15.60;99.90;;;;;;5112881;28;20063;-64
2023/06/22 03:26:48;;;;;;;19.65;17.65;;;15.60;99.90;;;;;;5142885;27;20454;-63
2023/06/22 03:29:15;;;;;;;19.00;17.08;;;15.60;99.90;;;;;;5133464;27;20034;-64
2023/06/22 03:31:41;;;;;;;20.40;18.23;;;15.70;99.90;;;;;;5121850;27;20099;-66
2023/06/22 03:34:06;;;;;;;19.30;17.35;;;15.60;99.90;;;;;;5120626;27;20035;-64
2023/06/22 03:36:32;;;;;;;19.80;17.85;;;15.60;99.90;;;;;;5127412;27;20114;-63
2023/06/22 03:38:58;;;;;;;19.85;17.85;;;15.60;99.90;;;;;;5114316;27;20042;-64
2023/06/22 03:41:23;;;;;;;20.80;18.70;;;15.60;99.90;;;;;;5120066;27;20043;-64
2023/06/22 03:43:49;;;;;;;22.38;19.98;;;15.60;99.90;;;;;;5109772;27;20107;-63
2023/06/22 03:46:15;;;;;;;24.92;21.08;;;15.60;99.90;;;;;;5116713;27;20489;-64
2023/06/22 03:48:40;;;;;;;22.70;20.15;;;15.60;99.90;;;;;;5125787;27;20046;-64
2023/06/22 03:51:06;;;;;;;23.88;21.27;;;15.60;99.90;;;;;;5144013;27;20106;-63
2023/06/22 03:53:32;;;;;;;25.05;21.20;;;15.60;99.90;;;;;;5142317;27;20031;-64
2023/06/22 03:55:57;;;;;;;22.73;20.30;;;15.70;99.90;;;;;;5124611;27;20055;-63
2023/06/22 03:58:23;;;;;;;22.17;19.77;;;15.70;99.90;;;;;;5102993;27;20046;-64
2023/06/22 04:00:50;;;;;;;22.85;20.55;;;15.80;99.90;;;;;;5120242;27;20039;-64
2023/06/22 04:03:18;;;;;;;24.50;22.00;;;15.80;99.90;;;;;;5121709;27;20400;-64
2023/06/22 04:05:44;;;;;;;24.13;21.63;;;15.80;99.90;;;;;;5151548;27;20433;-64
2023/06/22 04:08:10;;;;;;;26.45;22.60;;;15.90;99.90;;;;;;5127329;27;20041;-64
2023/06/22 04:10:36;;;;;;;25.13;22.42;;;15.90;99.90;;;;;;5130600;27;20482;-63
2023/06/22 04:13:01;;;;;;;27.42;24.35;;;16.00;99.90;;;;;;5116062;27;20525;-64
2023/06/22 04:15:27;;;;;;;27.00;24.15;;;16.00;99.90;;;;;;5132227;27;20049;-65
2023/06/22 04:17:55;;;;;;;27.83;24.75;;;16.00;99.90;;;;;;5136674;27;20042;-63
2023/06/22 04:20:21;;;;;;;34.00;28.27;;;16.00;99.90;;;;;;5139732;27;20394;-64
2023/06/22 04:22:46;;;;;;;31.60;27.38;;;16.10;99.90;;;;;;5135395;27;20038;-65
2023/06/22 04:25:12;;;;;;;33.58;27.13;;;16.10;99.90;;;;;;5134651;27;20482;-64
2023/06/22 04:27:40;;;;;;;30.42;26.95;;;16.20;99.90;;;;;;5134744;27;20490;-64
2023/06/22 04:30:07;;;;;;;29.27;25.38;;;16.20;99.90;;;;;;5120041;27;20404;-64
2023/06/22 04:32:33;;;;;;;34.53;27.05;;;16.30;99.90;;;;;;5115478;27;20038;-64
2023/06/22 04:35:00;;;;;;;33.92;27.63;;;16.30;99.90;;;;;;5118734;27;20125;-64
2023/06/22 04:37:26;;;;;;;29.70;25.98;;;16.40;99.90;;;;;;5146876;27;20557;-64
2023/06/22 04:39:52;;;;;;;30.92;26.42;;;16.40;99.90;;;;;;5132542;27;20066;-63
2023/06/22 04:42:17;;;;;;;32.22;26.45;;;16.40;99.90;;;;;;5144602;27;20105;-63
2023/06/22 04:44:43;;;;;;;29.42;26.13;;;16.50;99.90;;;;;;5126476;27;20066;-64
2023/06/22 04:47:09;;;;;;;30.75;27.20;;;16.50;99.90;;;;;;5130182;27;20031;-64
2023/06/22 04:49:40;;;;;;;33.15;28.17;;;16.60;99.90;;;;;;5111998;27;20051;-63
2023/06/22 04:52:10;;;;;;;32.38;27.40;;;16.70;99.90;;;;;;5132253;27;20039;-65
2023/06/22 04:54:38;;;;;;;30.48;26.27;;;16.70;99.90;;;;;;5142458;27;20486;-64
2023/06/22 04:57:09;;;;;;;33.88;27.55;;;16.80;99.90;;;;;;5116323;27;20055;-64
2023/06/22 04:59:36;;;;;;;32.53;27.70;;;16.90;99.90;;;;;;5118127;27;20370;-64
2023/06/22 05:02:02;;;;;;;37.05;29.42;;;17.00;99.90;;;;;;5131694;27;20107;-63
2023/06/22 05:04:32;;;;;;;38.03;29.95;;;17.10;99.90;;;;;;5149944;27;20043;-64
2023/06/22 05:07:00;;;;;;;31.90;28.25;;;17.20;99.90;;;;;;5145034;27;20035;-63
2023/06/22 05:09:26;;;;;;;33.08;27.63;;;17.30;99.90;;;;;;5121014;27;20047;-64
2023/06/22 05:11:51;;;;;;;32.72;27.55;;;17.40;99.90;;;;;;5125067;27;20043;-64
2023/06/22 05:14:18;;;;;;;32.55;28.00;;;17.40;99.90;;;;;;5135398;27;20042;-63
2023/06/22 05:16:45;;;;;;;31.08;27.05;;;17.50;99.90;;;;;;5131735;27;20091;-64
2023/06/22 05:19:11;;;;;;;29.27;26.08;;;17.60;99.90;;;;;;5120042;27;20035;-63
2023/06/22 05:21:37;;;;;;;35.00;29.35;;;17.70;99.90;;;;;;5136669;27;20097;-64
2023/06/22 05:24:03;;;;;;;30.95;26.42;;;17.80;99.90;;;;;;5134091;27;20042;-65
2023/06/22 05:26:34;;;;;;;32.45;28.92;;;17.90;99.90;;;;;;5135105;27;20066;-65
2023/06/22 05:29:00;;;;;;;35.80;28.70;;;18.00;99.90;;;;;;5134207;27;20043;-65
2023/06/22 05:31:26;;;;;;;31.23;27.75;;;18.10;99.90;;;;;;5134556;27;20038;-65
2023/06/22 05:33:54;;;;;;;31.20;27.58;;;18.20;99.90;;;;;;5128721;27;20045;-64
2023/06/22 05:36:21;;;;;;;34.03;29.50;;;18.30;99.90;;;;;;5133174;27;20078;-64
2023/06/22 05:38:47;;;;;;;35.13;27.98;;;18.40;99.90;;;;;;5128695;27;20509;-64
2023/06/22 05:41:12;;;;;;;33.50;28.10;;;18.50;99.90;;;;;;5149665;27;20069;-65
2023/06/22 05:43:38;;;;;;;30.55;26.88;;;18.60;99.90;;;;;;5122685;27;20045;-65
2023/06/22 05:46:04;;;;;;;31.73;27.83;;;18.80;99.90;;;;;;5134672;27;20038;-64
2023/06/22 05:48:30;;;;;;;32.58;27.52;;;18.90;99.90;;;;;;5128665;27;20059;-64
2023/06/22 05:50:56;;;;;;;31.42;27.92;;;18.90;99.90;;;;;;5136866;27;20067;-64
2023/06/22 05:53:22;;;;;;;32.13;26.95;;;19.00;99.90;;;;;;5129861;27;20038;-63
2023/06/22 05:55:48;;;;;;;29.27;26.17;;;19.10;99.90;;;;;;5133810;27;20053;-64
2023/06/22 05:58:13;;;;;;;34.33;27.02;;;19.10;99.90;;;;;;5133675;27;20071;-65
2023/06/22 06:00:40;;;;;;;31.45;25.05;;;19.20;99.90;;;;;;5128847;27;20070;-66
2023/06/22 06:03:07;;;;;;;29.45;24.95;;;19.30;99.90;;;;;;5124521;27;20051;-64
2023/06/22 06:05:34;;;;;;;31.38;25.92;;;19.40;99.90;;;;;;5150587;27;20107;-66
2023/06/22 06:08:05;;;;;;;28.17;24.65;;;19.40;99.90;;;;;;5134587;27;20423;-66
2023/06/22 06:10:32;;;;;;;27.30;24.38;;;19.50;99.90;;;;;;5129480;27;20035;-63
2023/06/22 06:12:58;;;;;;;32.13;26.40;;;19.60;99.90;;;;;;5129154;27;20031;-64
2023/06/22 06:15:23;;;;;;;29.92;23.25;;;19.70;99.90;;;;;;5117036;27;20050;-64
2023/06/22 06:17:51;;;;;;;25.95;23.10;;;19.70;99.90;;;;;;5115628;27;20038;-65
2023/06/22 06:20:22;;;;;;;29.35;23.50;;;19.80;99.90;;;;;;5125782;27;20065;-65
2023/06/22 06:22:48;;;;;;;27.10;22.65;;;19.90;99.90;;;;;;5114149;27;20091;-66
2023/06/22 06:25:18;;;;;;;26.48;23.58;;;20.00;99.90;;;;;;5127037;27;20434;-64
2023/06/22 06:27:45;;;;;;;25.65;22.20;;;20.10;99.90;;;;;;5127172;27;20398;-65
2023/06/22 06:30:12;;;;;;;24.48;21.88;;;20.20;99.90;;;;;;5118435;27;20117;-66
2023/06/22 06:32:38;;;;;;;25.25;22.50;;;20.30;99.90;;;;;;5097546;27;20493;-64
2023/06/22 06:35:07;;;;;;;23.55;20.42;;;20.40;99.90;;;;;;5122033;27;20462;-66
2023/06/22 06:37:37;;;;;;;23.70;20.60;;;20.40;99.90;;;;;;5125622;27;20054;-65
2023/06/22 06:40:10;;;;;;;21.60;18.83;;;20.40;99.90;;;;;;5137020;27;20035;-65
2023/06/22 06:42:46;;;;;;;22.38;18.52;;;20.50;99.90;;;;;;5115730;27;20043;-65
2023/06/22 06:45:13;;;;;;;20.98;18.42;;;20.50;99.90;;;;;;5125755;27;20035;-65
2023/06/22 06:47:39;;;;;;;21.25;19.05;;;20.60;99.90;;;;;;5114558;27;20035;-66
2023/06/22 06:50:06;;;;;;;22.48;18.90;;;20.60;99.90;;;;;;5149235;27;20469;-64
2023/06/22 06:52:32;;;;;;;21.10;17.73;;;20.70;99.90;;;;;;5130736;27;20034;-65
2023/06/22 06:54:58;;;;;;;23.00;16.30;;;20.90;99.90;;;;;;5118950;27;20697;-65
2023/06/22 06:57:28;;;;;;;18.48;15.18;;;21.00;99.90;;;;;;5130065;27;20043;-65
2023/06/22 06:59:57;;;;;;;16.75;14.18;;;21.20;99.90;;;;;;5126819;28;20554;-65
2023/06/22 07:02:23;;;;;;;15.27;13.38;;;21.30;99.90;;;;;;5127155;27;20031;-64
2023/06/22 07:04:49;;;;;;;16.65;13.50;;;21.40;99.90;;;;;;5121404;27;20038;-65
2023/06/22 07:07:15;;;;;;;15.50;12.38;;;21.40;99.90;;;;;;5116738;27;20035;-64
2023/06/22 07:09:41;;;;;;;14.55;12.15;;;21.50;99.90;;;;;;5109382;28;20054;-65
2023/06/22 07:12:07;;;;;;;13.85;12.25;;;21.60;99.90;;;;;;5129651;28;20096;-65
2023/06/22 07:14:32;;;;;;;14.52;12.95;;;21.80;99.90;;;;;;5129820;28;20050;-65
2023/06/22 07:16:58;;;;;;;14.65;12.05;;;21.90;99.90;;;;;;5121571;28;20047;-66
2023/06/22 07:19:26;;;;;;;16.98;13.63;;;21.90;99.90;;;;;;5112856;28;20036;-66
2023/06/22 07:21:53;;;;;;;14.65;13.20;;;22.10;99.90;;;;;;5120340;28;20055;-66
2023/06/22 07:24:22;;;;;;;17.08;12.50;;;22.10;99.90;;;;;;5128795;28;20118;-65
2023/06/22 07:26:49;;;;;;;15.20;11.60;;;22.30;99.90;;;;;;5129593;28;20069;-66
2023/06/22 07:29:22;;;;;;;13.73;10.75;;;22.40;99.90;;;;;;5114716;28;20044;-65
2023/06/22 07:31:50;;;;;;;15.20;11.93;;;22.60;99.90;;;;;;5115943;28;20100;-65
2023/06/22 07:34:15;;;;;;;23.42;12.43;;;22.70;99.90;;;;;;5130341;27;20069;-65
2023/06/22 07:36:41;;;;;;;13.32;10.98;;;22.80;99.90;;;;;;5122656;28;20442;-65
2023/06/22 07:39:07;;;;;;;12.45;10.20;;;23.00;99.90;;;;;;5124850;28;20040;-65
2023/06/22 07:41:32;;;;;;;14.77;10.95;;;23.00;99.90;;;;;;5119235;28;20557;-65
2023/06/22 07:43:58;;;;;;;11.23;9.95;;;23.10;99.90;;;;;;5126752;28;20035;-65
2023/06/22 07:46:24;;;;;;;12.75;9.65;;;23.30;99.90;;;;;;5115823;28;20061;-64
2023/06/22 07:48:49;;;;;;;13.35;10.75;;;23.40;99.90;;;;;;5119747;28;20050;-65
2023/06/22 07:51:15;;;;;;;14.00;9.80;;;23.60;99.90;;;;;;5110886;27;20040;-66
2023/06/22 07:53:42;;;;;;;12.27;10.40;;;23.70;99.90;;;;;;5120048;28;20047;-65
2023/06/22 07:56:10;;;;;;;14.52;10.13;;;23.80;99.90;;;;;;5118436;28;20181;-66
2023/06/22 07:58:36;;;;;;;11.27;9.70;;;23.90;99.90;;;;;;5109349;28;20462;-65
2023/06/22 08:01:03;;;;;;;10.65;9.55;;;23.90;99.90;;;;;;5107663;28;20085;-65
2023/06/22 08:03:28;;;;;;;13.70;11.18;;;24.00;99.90;;;;;;5108574;28;20445;-65
2023/06/22 08:05:54;;;;;;;11.13;9.77;;;24.10;99.90;;;;;;5106206;28;20040;-66
2023/06/22 08:08:20;;;;;;;10.65;9.00;;;24.20;99.90;;;;;;5108203;28;20405;-65
2023/06/22 08:10:46;;;;;;;11.18;9.10;;;24.30;99.90;;;;;;5103895;28;20154;-65
2023/06/22 08:13:12;;;;;;;10.40;8.95;;;24.40;99.90;;;;;;5108108;28;20042;-65
2023/06/22 08:15:37;;;;;;;13.75;9.25;;;24.50;99.90;;;;;;5107316;28;20045;-64
2023/06/22 08:18:03;;;;;;;16.15;9.05;;;24.70;99.90;;;;;;5108205;28;20783;-65
2023/06/22 08:20:29;;;;;;;20.38;10.02;;;24.70;99.90;;;;;;5109578;28;20039;-66
2023/06/22 08:22:57;;;;;;;13.80;8.43;;;24.80;99.90;;;;;;5111582;28;20088;-64
2023/06/22 08:25:23;;;;;;;9.20;8.30;;;24.90;99.90;;;;;;5110608;28;20078;-65
2023/06/22 08:27:49;;;;;;;12.70;8.95;;;24.90;99.90;;;;;;5109406;28;20082;-65
2023/06/22 08:30:15;;;;;;;9.77;7.72;;;25.00;99.90;;;;;;5107459;28;20157;-65
2023/06/22 08:32:41;;;;;;;12.48;9.07;;;25.10;99.90;;;;;;5112124;28;20080;-65
2023/06/22 08:35:08;;;;;;;9.88;8.18;;;25.10;99.90;;;;;;5111575;28;20043;-64
2023/06/22 08:37:35;;;;;;;9.52;8.52;;;25.20;99.90;;;;;;5108623;28;20044;-64
2023/06/22 08:40:08;;;;;;;29.17;8.80;;;25.20;99.90;;;;;;5110919;28;20047;-64
2023/06/22 08:42:34;;;;;;;9.00;7.22;;;25.30;99.90;;;;;;5109568;28;20047;-66
2023/06/22 08:44:59;;;;;;;13.80;7.70;;;25.30;99.90;;;;;;5111251;28;20074;-64
2023/06/22 08:47:27;;;;;;;10.85;6.80;;;25.40;99.90;;;;;;5111443;28;20036;-67
2023/06/22 08:49:53;;;;;;;10.32;6.47;;;25.60;99.90;;;;;;5110727;28;20075;-64
2023/06/22 08:52:19;;;;;;;10.85;6.55;;;25.70;99.90;;;;;;5110151;28;20117;-66
2023/06/22 08:54:48;;;;;;;9.07;6.45;;;25.80;99.90;;;;;;5105773;28;20082;-66
2023/06/22 08:57:14;;;;;;;8.85;6.40;;;26.00;99.90;;;;;;5110413;28;20538;-65
2023/06/22 08:59:40;;;;;;;9.70;6.15;;;26.10;99.90;;;;;;5110888;28;20122;-66
2023/06/22 09:02:06;;;;;;;7.95;6.13;;;26.10;99.90;;;;;;5108560;28;20075;-64
2023/06/22 09:04:34;;;;;;;8.63;7.25;;;26.20;99.90;;;;;;5108999;28;20050;-64
2023/06/22 09:07:00;;;;;;;9.45;6.72;;;26.20;99.90;;;;;;5111321;28;20119;-65
2023/06/22 09:09:26;;;;;;;8.70;6.97;;;26.20;99.90;;;;;;5112220;28;20493;-66
2023/06/22 09:11:52;;;;;;;8.55;7.03;;;26.20;99.90;;;;;;5109723;28;20063;-65
2023/06/22 09:14:18;;;;;;;8.45;6.80;;;26.30;99.90;;;;;;5107402;28;20054;-65
2023/06/22 09:16:44;;;;;;;9.50;7.22;;;26.30;99.40;;;;;;5110829;28;20050;-66
2023/06/22 09:19:10;;;;;;;8.23;6.40;;;26.40;99.50;;;;;;5110127;28;20047;-65
2023/06/22 09:21:36;;;;;;;8.18;6.70;;;26.40;99.60;;;;;;5110606;28;20494;-65
2023/06/22 09:24:02;;;;;;;7.38;6.65;;;26.40;99.30;;;;;;5111447;28;20036;-66
2023/06/22 09:26:27;;;;;;;8.88;6.57;;;26.50;98.70;;;;;;5093419;28;20043;-65
2023/06/22 09:28:53;;;;;;;10.00;5.97;;;26.50;99.00;;;;;;5111063;28;20448;-65
2023/06/22 09:31:25;;;;;;;8.63;6.60;;;26.70;98.80;;;;;;5110698;28;20386;-64
2023/06/22 09:33:52;;;;;;;7.90;6.95;;;26.80;98.80;;;;;;5112220;28;20071;-65
2023/06/22 09:36:17;;;;;;;6.65;5.88;;;27.00;98.20;;;;;;5111165;28;20032;-65
2023/06/22 09:38:43;;;;;;;7.13;6.43;;;27.10;98.00;;;;;;5110555;28;20062;-65
2023/06/22 09:41:08;;;;;;;8.57;6.30;;;27.00;98.00;;;;;;5112233;28;20038;-65
2023/06/22 09:43:35;;;;;;;7.50;6.03;;;26.80;97.80;;;;;;5110622;28;20135;-65
2023/06/22 09:46:02;;;;;;;8.65;5.80;;;26.70;97.90;;;;;;5112125;28;20040;-66
2023/06/22 09:48:29;;;;;;;11.00;5.32;;;26.60;97.80;;;;;;5111828;28;20032;-65
2023/06/22 09:50:55;;;;;;;6.80;6.10;;;26.60;98.10;;;;;;5104788;28;20180;-66
2023/06/22 09:53:20;;;;;;;6.57;5.45;;;26.50;97.90;;;;;;5111829;28;20509;-65
2023/06/22 09:55:46;;;;;;;8.23;5.60;;;26.60;98.00;;;;;;5114083;27;20093;-65
2023/06/22 09:58:12;;;;;;;6.82;5.38;;;26.70;97.80;;;;;;5128950;27;20109;-66
2023/06/22 10:00:38;;;;;;;9.55;6.30;;;26.80;97.40;;;;;;5115683;27;20062;-66
2023/06/22 10:03:03;;;;;;;7.13;5.45;;;26.90;96.90;;;;;;5115897;27;20094;-66
2023/06/22 10:05:29;;;;;;;7.97;5.95;;;27.00;97.00;;;;;;5132792;27;20077;-65
2023/06/22 10:07:55;;;;;;;8.82;5.55;;;27.30;96.80;;;;;;5119850;27;20482;-64
2023/06/22 10:10:20;;;;;;;8.23;6.10;;;27.60;95.90;;;;;;5117527;27;20050;-65
2023/06/22 10:12:48;;;;;;;8.55;5.60;;;27.60;94.90;;;;;;5113305;27;20035;-66
2023/06/22 10:15:14;;;;;;;7.18;5.47;;;27.60;95.50;;;;;;5113406;27;20043;-66
2023/06/22 10:17:40;;;;;;;7.50;6.03;;;27.70;96.40;;;;;;5112997;27;20118;-65
2023/06/22 10:20:13;;;;;;;9.18;6.53;;;27.90;96.10;;;;;;5118988;27;20077;-66
2023/06/22 10:22:43;;;;;;;7.03;5.03;;;28.00;95.80;;;;;;5112766;27;20046;-65
2023/06/22 10:25:09;;;;;;;7.15;5.47;;;28.10;95.50;;;;;;5130432;27;20038;-64
2023/06/22 10:27:35;;;;;;;6.25;4.55;;;28.10;94.90;;;;;;5130524;27;20133;-65
2023/06/22 10:30:01;;;;;;;6.57;5.03;;;28.20;94.50;;;;;;5122355;27;20156;-64
2023/06/22 10:32:28;;;;;;;11.55;5.72;;;28.40;94.30;;;;;;5129719;27;20523;-65
2023/06/22 10:34:54;;;;;;;8.55;5.40;;;28.50;94.00;;;;;;5133816;27;20495;-65
2023/06/22 10:37:20;;;;;;;6.43;4.95;;;28.50;93.80;;;;;;5116424;27;20041;-65
2023/06/22 10:39:45;;;;;;;6.55;5.50;;;28.50;94.00;;;;;;5126204;27;20404;-65
2023/06/22 10:42:12;;;;;;;5.18;4.60;;;28.70;93.90;;;;;;5145977;27;20504;-66
2023/06/22 10:44:40;;;;;;;6.05;5.03;;;28.70;93.20;;;;;;5144801;27;20027;-65
2023/06/22 10:47:06;;;;;;;7.88;5.53;;;28.50;92.40;;;;;;5130882;27;20047;-66
2023/06/22 10:49:32;;;;;;;8.18;5.40;;;28.40;92.80;;;;;;5117869;27;20065;-67
2023/06/22 10:51:57;;;;;;;5.68;5.18;;;28.00;92.60;;;;;;5113127;27;20035;-64
2023/06/22 10:54:23;;;;;;;5.65;5.05;;;27.90;92.80;;;;;;5121268;27;20058;-65
2023/06/22 10:56:49;;;;;;;5.05;4.50;;;27.60;92.70;;;;;;5122520;27;20056;-66
2023/06/22 10:59:14;;;;;;;4.57;3.92;;;27.30;91.80;;;;;;5117361;27;20118;-66
2023/06/22 11:01:40;;;;;;;7.72;5.35;;;27.10;92.00;;;;;;5123830;27;20517;-64
2023/06/22 11:04:06;;;;;;;5.68;4.28;;;26.90;91.90;;;;;;5119087;28;20054;-65
2023/06/22 11:06:31;;;;;;;4.50;3.35;;;26.70;92.00;;;;;;5116885;28;20122;-66
2023/06/22 11:08:58;;;;;;;6.85;4.40;;;26.60;92.30;;;;;;5127420;27;20385;-65
2023/06/22 11:11:25;;;;;;;6.63;4.95;;;26.40;92.70;;;;;;5128244;27;20070;-65
2023/06/22 11:13:52;;;;;;;7.53;5.35;;;26.40;93.20;;;;;;5127549;27;20078;-67
2023/06/22 11:16:18;;;;;;;5.68;5.10;;;26.30;92.90;;;;;;5113739;27;20147;-64
2023/06/22 11:18:43;;;;;;;7.10;5.25;;;26.20;93.00;;;;;;5142777;27;20118;-65
2023/06/22 11:21:09;;;;;;;7.90;4.85;;;26.10;93.20;;;;;;5148115;27;20125;-65
2023/06/22 11:23:35;;;;;;;5.28;4.55;;;26.10;93.50;;;;;;5114497;27;20031;-65
2023/06/22 11:26:00;;;;;;;6.05;5.38;;;26.00;93.10;;;;;;5112101;27;20043;-65
2023/06/22 11:28:26;;;;;;;7.32;4.68;;;26.00;93.50;;;;;;5134829;27;20072;-65
2023/06/22 11:30:51;;;;;;;7.20;5.13;;;26.00;94.00;;;;;;5113702;27;20062;-63
2023/06/22 11:33:17;;;;;;;6.13;4.55;;;25.90;94.10;;;;;;5112393;27;20043;-65
2023/06/22 11:35:43;;;;;;;5.63;4.90;;;25.90;94.50;;;;;;5095600;27;20130;-65
2023/06/22 11:38:08;;;;;;;5.95;4.85;;;26.00;94.50;;;;;;5126055;27;20042;-64
2023/06/22 11:40:34;;;;;;;4.97;3.90;;;26.10;94.70;;;;;;5118385;27;20078;-66
2023/06/22 11:42:59;;;;;;;7.28;5.30;;;26.10;94.70;;;;;;5126119;27;20046;-64
2023/06/22 11:45:25;;;;;;;5.38;4.47;;;26.10;94.20;;;;;;5118724;27;20035;-64
2023/06/22 11:47:51;;;;;;;6.22;5.32;;;26.10;94.10;;;;;;5125513;27;20069;-64
2023/06/22 11:50:17;;;;;;;7.68;5.30;;;26.10;94.10;;;;;;5112230;27;20111;-64
2023/06/22 11:52:42;;;;;;;9.20;5.28;;;26.10;93.80;;;;;;5114677;27;20161;-63
2023/06/22 11:55:08;;;;;;;7.25;4.82;;;26.10;93.90;;;;;;5137409;27;20034;-64
2023/06/22 11:57:36;;;;;;;7.25;5.25;;;26.10;94.10;;;;;;5123884;27;20094;-64
2023/06/22 12:00:06;;;;;;;8.60;5.10;;;26.10;93.70;;;;;;5118621;27;20043;-64
2023/06/22 12:02:32;;;;;;;6.18;5.07;;;26.00;93.80;;;;;;5115907;27;20413;-65
2023/06/22 12:04:58;;;;;;;6.60;4.80;;;26.00;93.80;;;;;;5135514;27;20038;-65
2023/06/22 12:07:24;;;;;;;5.65;4.95;;;25.90;93.70;;;;;;5136378;27;20046;-65
2023/06/22 12:09:49;;;;;;;5.90;4.60;;;25.90;93.80;;;;;;5129647;27;20034;-64
2023/06/22 12:12:15;;;;;;;5.90;5.10;;;25.90;94.10;;;;;;5129036;27;20039;-65
2023/06/22 12:14:41;;;;;;;7.78;5.40;;;25.90;94.40;;;;;;5135739;27;20053;-65
2023/06/22 12:17:06;;;;;;;6.75;4.90;;;25.80;94.20;;;;;;5154518;27;20043;-66
2023/06/22 12:19:32;;;;;;;6.55;5.30;;;25.70;94.40;;;;;;5127226;27;20046;-67
2023/06/22 12:21:57;;;;;;;7.07;4.60;;;25.70;94.20;;;;;;5126528;27;20493;-65
2023/06/22 12:24:23;;;;;;;7.00;5.00;;;25.60;94.40;;;;;;5135669;27;20043;-64
2023/06/22 12:26:49;;;;;;;5.47;4.90;;;25.60;94.10;;;;;;5116088;27;20031;-64
2023/06/22 12:29:15;;;;;;;5.65;4.30;;;25.50;94.00;;;;;;5127069;27;20033;-66
2023/06/22 12:31:41;;;;;;;6.97;4.63;;;25.50;94.40;;;;;;5133869;27;20039;-64